Terminal Aerodrome Forecast
Issued by NWS New Orleans/Baton Rouge, LA

Home | Current Version | Previous Version | Text Only | Print | Product List | Glossary On
Versions: 1 2 3 4 5 6 7 8 9 10 11 12 13 14 15 16 17
000
FTUS44 KLIX 202300 RRA
TAFBTR
TAF
KBTR 202340Z 2100/2124 05006KT P6SM OVC011
      TEMPO 2101/2104 SCT011 BKN100
     FM210400 03006KT P6SM BKN015
      TEMPO 2109/2113 BKN008
     FM211500 07005KT P6SM BKN020
     FM211800 08005KT P6SM BKN035=

USA.gov is the U.S. government's official web portal to all federal, state and local government web resources and services.